Time;durP1;ratioP1;P1;durP2;ratioP2;P2;SDS_P1;SDS_P2;PMS_P1;PMS_P2;Temp;Humidity;BMP_temperature;BMP_pressure;BME280_temperature;BME280_humidity;BME280_pressure;Samples;Min_cycle;Max_cycle;Signal;HPM_P1;HPM_P2
2022/10/22 00:00:15;;;;;;;4.18;1.80;;;;;;;;;;5122190;28;20192;-69
2022/10/22 00:02:41;;;;;;;1.60;1.50;;;;;;;;;;5122159;28;20524;-69
2022/10/22 00:05:08;;;;;;;3.08;1.50;;;;;;;;;;5122150;28;20195;-69
2022/10/22 00:07:34;;;;;;;2.05;1.23;;;;;;;;;;5122126;28;20195;-69
2022/10/22 00:10:01;;;;;;;1.33;1.10;;;;;;;;;;5121906;28;20195;-69
2022/10/22 00:12:27;;;;;;;3.40;1.38;;;;;;;;;;5122376;28;20201;-69
2022/10/22 00:14:53;;;;;;;2.30;1.05;;;;;;;;;;5122223;28;20191;-69
2022/10/22 00:17:21;;;;;;;1.77;0.77;;;;;;;;;;5122130;28;20213;-69
2022/10/22 00:19:47;;;;;;;2.47;0.98;;;;;;;;;;5121927;28;20195;-69
2022/10/22 00:22:14;;;;;;;2.75;0.88;;;;;;;;;;5121958;28;20202;-69
2022/10/22 00:24:40;;;;;;;2.05;0.80;;;;;;;;;;5121808;28;20215;-69
2022/10/22 00:27:08;;;;;;;1.50;0.80;;;;;;;;;;5122218;28;20351;-68
2022/10/22 00:29:34;;;;;;;1.00;0.90;;;;;;;;;;5121813;28;20201;-68
2022/10/22 00:32:00;;;;;;;4.20;0.80;;;;;;;;;;5122031;28;20203;-68
2022/10/22 00:34:28;;;;;;;1.48;1.00;;;;;;;;;;5121838;28;20198;-68
2022/10/22 00:36:54;;;;;;;3.50;0.90;;;;;;;;;;5121760;28;20499;-68
2022/10/22 00:39:22;;;;;;;2.15;0.85;;;;;;;;;;5122030;28;20409;-68
2022/10/22 00:41:49;;;;;;;1.65;0.73;;;;;;;;;;5122007;28;20202;-68
2022/10/22 00:44:33;;;;;;;3.90;0.95;;;;;;;;;;5121840;28;20215;-69
2022/10/22 00:46:59;;;;;;;6.80;0.88;;;;;;;;;;5090600;28;20222;-69
2022/10/22 00:49:27;;;;;;;1.15;0.80;;;;;;;;;;5121375;28;20206;-69
2022/10/22 00:51:53;;;;;;;1.92;1.20;;;;;;;;;;5122130;28;20225;-69
2022/10/22 00:54:20;;;;;;;1.38;1.27;;;;;;;;;;5121917;28;20199;-69
2022/10/22 00:56:48;;;;;;;2.45;0.90;;;;;;;;;;5122158;28;20376;-69
2022/10/22 00:59:16;;;;;;;1.23;1.00;;;;;;;;;;5121862;28;20201;-69
2022/10/22 01:01:44;;;;;;;1.45;1.00;;;;;;;;;;5125264;28;20195;-69
2022/10/22 01:04:10;;;;;;;4.95;1.00;;;;;;;;;;5125146;28;20565;-69
2022/10/22 01:06:38;;;;;;;8.57;1.27;;;;;;;;;;5125533;28;20202;-69
2022/10/22 01:09:09;;;;;;;1.95;1.08;;;;;;;;;;5125040;28;20199;-69
2022/10/22 01:11:40;;;;;;;1.83;0.98;;;;;;;;;;5125309;28;20195;-69
2022/10/22 01:14:12;;;;;;;3.13;0.98;;;;;;;;;;5125160;28;20213;-69
2022/10/22 01:16:43;;;;;;;3.35;1.10;;;;;;;;;;5125039;28;20557;-69
2022/10/22 01:19:19;;;;;;;2.20;1.13;;;;;;;;;;5125267;28;20195;-69
2022/10/22 01:21:50;;;;;;;1.17;1.17;;;;;;;;;;5124638;28;20203;-69
2022/10/22 01:24:23;;;;;;;3.50;1.25;;;;;;;;;;5124580;28;20222;-68
2022/10/22 01:29:56;;;;;;;3.85;1.13;;;;;;;;;;5124061;28;20212;-69
2022/10/22 01:32:25;;;;;;;2.85;1.30;;;;;;;;;;5125153;27;20201;-69
2022/10/22 01:34:53;;;;;;;3.03;1.35;;;;;;;;;;5125046;28;20191;-69
2022/10/22 01:37:21;;;;;;;3.95;1.17;;;;;;;;;;5124662;28;20203;-67
2022/10/22 01:39:49;;;;;;;4.35;1.50;;;;;;;;;;5124525;28;20195;-68
2022/10/22 01:42:15;;;;;;;1.10;1.10;;;;;;;;;;5124539;28;20213;-68
2022/10/22 01:44:41;;;;;;;1.15;1.00;;;;;;;;;;5124121;28;20213;-68
2022/10/22 01:47:15;;;;;;;3.13;1.00;;;;;;;;;;5124596;28;20201;-68
2022/10/22 01:49:51;;;;;;;3.55;1.20;;;;;;;;;;5124269;28;20195;-68
2022/10/22 01:52:25;;;;;;;1.58;1.02;;;;;;;;;;5124975;28;20336;-69
2022/10/22 01:54:56;;;;;;;2.38;1.10;;;;;;;;;;5124347;28;20195;-69
2022/10/22 01:57:27;;;;;;;0.77;0.75;;;;;;;;;;5124474;28;20221;-69
2022/10/22 01:59:59;;;;;;;0.90;0.90;;;;;;;;;;5123987;28;20238;-69
2022/10/22 02:02:31;;;;;;;2.72;1.30;;;;;;;;;;5124191;28;20223;-69
2022/10/22 02:05:00;;;;;;;2.00;1.08;;;;;;;;;;5124009;28;20285;-69
2022/10/22 02:07:28;;;;;;;1.27;1.00;;;;;;;;;;5123923;28;20209;-69
2022/10/22 02:09:56;;;;;;;2.55;1.15;;;;;;;;;;5123926;28;20285;-69
2022/10/22 02:12:22;;;;;;;1.67;1.13;;;;;;;;;;5123873;28;20202;-69
2022/10/22 02:14:49;;;;;;;1.50;1.08;;;;;;;;;;5124031;28;20191;-69
2022/10/22 02:17:18;;;;;;;1.08;1.00;;;;;;;;;;5123859;28;20196;-69
2022/10/22 02:19:47;;;;;;;6.40;1.02;;;;;;;;;;5123680;28;20202;-69
2022/10/22 02:22:14;;;;;;;3.97;0.90;;;;;;;;;;5123724;28;20195;-69
2022/10/22 02:24:40;;;;;;;2.67;0.98;;;;;;;;;;5123872;28;20643;-69
2022/10/22 02:27:08;;;;;;;1.48;1.02;;;;;;;;;;5123597;28;20195;-69
2022/10/22 02:29:37;;;;;;;1.20;0.90;;;;;;;;;;5123615;28;20367;-69
2022/10/22 02:32:05;;;;;;;1.23;0.90;;;;;;;;;;5123485;28;20195;-69
2022/10/22 02:34:32;;;;;;;4.50;0.93;;;;;;;;;;5123434;28;20197;-69
2022/10/22 02:37:01;;;;;;;0.90;0.90;;;;;;;;;;5123310;28;20202;-69
2022/10/22 02:39:28;;;;;;;1.15;1.05;;;;;;;;;;5123489;28;20195;-67
2022/10/22 02:41:56;;;;;;;3.70;0.82;;;;;;;;;;5123438;28;20215;-67
2022/10/22 02:44:23;;;;;;;2.97;0.98;;;;;;;;;;5123353;28;20211;-68
2022/10/22 02:46:49;;;;;;;1.30;1.10;;;;;;;;;;5123472;28;20195;-68
2022/10/22 02:49:16;;;;;;;0.80;0.80;;;;;;;;;;5122883;28;20194;-68
2022/10/22 02:51:42;;;;;;;6.15;0.98;;;;;;;;;;5123292;28;20389;-68
2022/10/22 02:54:10;;;;;;;1.75;0.75;;;;;;;;;;5123077;28;20198;-68
2022/10/22 02:56:36;;;;;;;1.45;0.80;;;;;;;;;;5123235;28;20209;-68
2022/10/22 02:59:02;;;;;;;3.65;0.70;;;;;;;;;;5122884;28;20195;-68
2022/10/22 03:01:29;;;;;;;3.60;0.80;;;;;;;;;;5122931;28;20198;-68
2022/10/22 03:03:55;;;;;;;0.80;0.73;;;;;;;;;;5122873;28;20502;-68
2022/10/22 03:06:21;;;;;;;0.77;0.77;;;;;;;;;;5122947;28;20195;-68
2022/10/22 03:08:48;;;;;;;5.60;0.70;;;;;;;;;;5122774;28;20203;-68
2022/10/22 03:11:15;;;;;;;1.55;0.50;;;;;;;;;;5122903;28;20266;-68
2022/10/22 03:13:42;;;;;;;0.50;0.50;;;;;;;;;;5122800;28;20202;-68
2022/10/22 03:16:08;;;;;;;3.88;0.65;;;;;;;;;;5122677;28;20368;-68
2022/10/22 03:18:34;;;;;;;2.45;0.80;;;;;;;;;;5122539;28;20363;-68
2022/10/22 03:21:07;;;;;;;3.17;0.50;;;;;;;;;;5122912;28;20198;-68
2022/10/22 03:23:34;;;;;;;5.38;0.60;;;;;;;;;;5121983;28;20201;-68
2022/10/22 03:26:00;;;;;;;5.40;0.60;;;;;;;;;;5122880;28;20201;-68
2022/10/22 03:28:28;;;;;;;5.20;0.60;;;;;;;;;;5122715;28;20237;-68
2022/10/22 03:30:54;;;;;;;1.50;0.70;;;;;;;;;;5122339;28;20195;-68
2022/10/22 03:33:20;;;;;;;1.25;0.45;;;;;;;;;;5122722;28;20516;-68
2022/10/22 03:35:47;;;;;;;0.93;0.55;;;;;;;;;;5122601;28;20195;-68
2022/10/22 03:38:14;;;;;;;1.85;0.60;;;;;;;;;;5122433;28;20203;-68
2022/10/22 03:40:41;;;;;;;3.15;0.95;;;;;;;;;;5122405;28;20210;-68
2022/10/22 03:43:07;;;;;;;0.98;0.50;;;;;;;;;;5122379;28;20195;-68
2022/10/22 03:45:34;;;;;;;3.40;0.82;;;;;;;;;;5122621;28;20223;-68
2022/10/22 03:48:01;;;;;;;0.57;0.57;;;;;;;;;;5122081;28;20199;-68
2022/10/22 03:50:27;;;;;;;3.22;0.68;;;;;;;;;;5122664;28;20514;-68
2022/10/22 03:52:53;;;;;;;1.10;0.55;;;;;;;;;;5122473;28;20195;-68
2022/10/22 03:55:19;;;;;;;1.80;0.65;;;;;;;;;;5122317;28;20191;-68
2022/10/22 03:57:46;;;;;;;0.63;0.50;;;;;;;;;;5122006;28;20205;-68
2022/10/22 04:00:12;;;;;;;1.08;0.60;;;;;;;;;;5122067;28;20203;-68
2022/10/22 04:02:40;;;;;;;1.60;0.60;;;;;;;;;;5122188;28;20209;-68
2022/10/22 04:05:07;;;;;;;0.40;0.40;;;;;;;;;;5122227;28;20219;-68
2022/10/22 04:07:33;;;;;;;0.68;0.50;;;;;;;;;;5122549;28;20505;-68
2022/10/22 04:09:59;;;;;;;2.20;0.50;;;;;;;;;;5122168;28;20201;-68
2022/10/22 04:12:25;;;;;;;1.42;0.60;;;;;;;;;;5122106;28;20195;-68
2022/10/22 04:14:52;;;;;;;2.85;0.68;;;;;;;;;;5122022;28;20199;-68
2022/10/22 04:17:18;;;;;;;0.57;0.40;;;;;;;;;;5122438;28;20202;-68
2022/10/22 04:19:46;;;;;;;2.05;0.50;;;;;;;;;;5121938;28;20221;-68
2022/10/22 04:22:12;;;;;;;5.18;0.60;;;;;;;;;;5121966;28;20199;-68
2022/10/22 04:24:38;;;;;;;3.08;0.70;;;;;;;;;;5122019;28;20534;-68
2022/10/22 04:27:05;;;;;;;3.15;0.70;;;;;;;;;;5121934;28;20195;-68
2022/10/22 04:29:31;;;;;;;8.13;1.02;;;;;;;;;;5121644;28;20229;-68
2022/10/22 04:31:57;;;;;;;2.78;1.00;;;;;;;;;;5122131;28;20225;-68
2022/10/22 04:34:26;;;;;;;1.92;0.70;;;;;;;;;;5123657;28;20192;-68
2022/10/22 04:36:54;;;;;;;0.70;0.70;;;;;;;;;;5125840;28;20195;-68
2022/10/22 04:39:20;;;;;;;2.58;0.70;;;;;;;;;;5125586;28;20274;-68
2022/10/22 04:41:46;;;;;;;0.70;0.70;;;;;;;;;;5125813;28;20201;-68
2022/10/22 04:44:12;;;;;;;1.75;1.02;;;;;;;;;;5125561;28;20225;-68
2022/10/22 04:46:39;;;;;;;1.65;1.42;;;;;;;;;;5125859;28;20424;-68
2022/10/22 04:49:05;;;;;;;4.93;2.42;;;;;;;;;;5125439;27;20195;-68
2022/10/22 04:51:32;;;;;;;5.55;0.80;;;;;;;;;;5125613;28;20203;-68
2022/10/22 04:53:59;;;;;;;3.13;0.82;;;;;;;;;;5125553;28;20501;-68
2022/10/22 04:56:27;;;;;;;0.95;0.50;;;;;;;;;;5125652;28;20210;-68
2022/10/22 04:58:54;;;;;;;2.30;0.65;;;;;;;;;;5125191;28;20195;-68
2022/10/22 05:01:21;;;;;;;1.05;0.73;;;;;;;;;;5125466;28;20205;-68
2022/10/22 05:03:48;;;;;;;2.72;0.50;;;;;;;;;;5125476;28;20201;-68
2022/10/22 05:06:15;;;;;;;3.30;0.80;;;;;;;;;;5125196;27;20571;-68
2022/10/22 05:08:42;;;;;;;3.50;0.60;;;;;;;;;;5124923;28;20209;-68
2022/10/22 05:11:14;;;;;;;2.25;0.50;;;;;;;;;;5125339;28;20195;-68
2022/10/22 05:13:40;;;;;;;1.02;1.02;;;;;;;;;;5125234;27;20221;-68
2022/10/22 05:16:07;;;;;;;1.17;1.05;;;;;;;;;;5125231;28;20192;-68
2022/10/22 05:18:34;;;;;;;1.00;1.00;;;;;;;;;;5125043;28;20201;-68
2022/10/22 05:21:00;;;;;;;3.00;0.70;;;;;;;;;;5125011;28;20392;-68
2022/10/22 05:23:27;;;;;;;3.30;0.88;;;;;;;;;;5124772;27;20195;-68
2022/10/22 05:25:53;;;;;;;1.15;1.10;;;;;;;;;;5124754;28;20290;-69
2022/10/22 05:28:20;;;;;;;0.93;0.80;;;;;;;;;;5124659;28;20215;-69
2022/10/22 05:30:52;;;;;;;5.15;1.08;;;;;;;;;;5124710;28;20195;-69
2022/10/22 05:33:18;;;;;;;0.85;0.85;;;;;;;;;;5124679;28;20195;-71
2022/10/22 05:35:45;;;;;;;0.90;0.90;;;;;;;;;;5124697;28;20195;-71
2022/10/22 05:38:11;;;;;;;6.90;1.02;;;;;;;;;;5124598;27;20203;-71
2022/10/22 05:40:37;;;;;;;1.00;1.00;;;;;;;;;;5124770;28;20198;-71
2022/10/22 05:43:03;;;;;;;1.05;0.95;;;;;;;;;;5124732;27;20398;-71
2022/10/22 05:45:31;;;;;;;1.42;1.08;;;;;;;;;;5124003;28;20468;-71
2022/10/22 05:47:57;;;;;;;3.20;1.10;;;;;;;;;;5124320;28;20195;-71
2022/10/22 05:50:24;;;;;;;3.15;1.50;;;;;;;;;;5124456;28;20203;-71
2022/10/22 05:52:50;;;;;;;4.15;1.70;;;;;;;;;;5124391;28;20195;-71
2022/10/22 05:55:16;;;;;;;3.20;1.90;;;;;;;;;;5124275;28;20222;-71
2022/10/22 05:57:42;;;;;;;1.75;1.67;;;;;;;;;;5124173;28;20203;-71
2022/10/22 06:00:09;;;;;;;3.65;1.85;;;;;;;;;;5124561;28;20202;-71
2022/10/22 06:02:37;;;;;;;2.85;1.60;;;;;;;;;;5124254;28;20225;-71
2022/10/22 06:05:03;;;;;;;3.33;1.55;;;;;;;;;;5123960;28;20211;-71
2022/10/22 06:07:30;;;;;;;2.15;1.40;;;;;;;;;;5124246;27;20386;-71
2022/10/22 06:09:56;;;;;;;2.72;1.50;;;;;;;;;;5123792;28;20205;-71
2022/10/22 06:12:22;;;;;;;4.88;1.40;;;;;;;;;;5124152;28;20467;-71
2022/10/22 06:14:49;;;;;;;4.22;1.20;;;;;;;;;;5123987;28;20203;-72
2022/10/22 06:17:15;;;;;;;1.38;1.35;;;;;;;;;;5123887;28;20222;-72
2022/10/22 06:19:43;;;;;;;2.40;1.85;;;;;;;;;;5123517;28;20202;-72
2022/10/22 06:22:09;;;;;;;4.70;1.85;;;;;;;;;;5124016;28;20416;-72
2022/10/22 06:24:35;;;;;;;5.97;2.20;;;;;;;;;;5123847;28;20209;-71
2022/10/22 06:27:01;;;;;;;2.50;2.00;;;;;;;;;;5123641;28;20202;-71
2022/10/22 06:29:28;;;;;;;5.88;2.35;;;;;;;;;;5123397;27;20223;-72
2022/10/22 06:31:54;;;;;;;10.90;2.05;;;;;;;;;;5123465;28;20195;-72
2022/10/22 06:34:20;;;;;;;4.18;2.10;;;;;;;;;;5123493;28;20209;-71
2022/10/22 06:36:50;;;;;;;7.47;1.60;;;;;;;;;;5123668;28;20374;-71
2022/10/22 06:39:17;;;;;;;5.40;1.95;;;;;;;;;;5123127;28;20282;-71
2022/10/22 06:41:43;;;;;;;4.38;2.20;;;;;;;;;;5123450;28;20203;-71
2022/10/22 06:44:12;;;;;;;3.33;2.03;;;;;;;;;;5123367;28;20194;-71
2022/10/22 06:46:39;;;;;;;3.33;1.90;;;;;;;;;;5123211;28;20554;-71
2022/10/22 06:49:05;;;;;;;2.60;2.40;;;;;;;;;;5123289;28;20562;-71
2022/10/22 06:51:31;;;;;;;6.00;2.70;;;;;;;;;;5123380;28;20195;-71
2022/10/22 06:53:59;;;;;;;2.88;2.45;;;;;;;;;;5123287;28;20389;-71
2022/10/22 06:56:27;;;;;;;5.72;2.72;;;;;;;;;;5123115;27;20215;-71
2022/10/22 06:58:54;;;;;;;4.57;3.17;;;;;;;;;;5122078;28;20644;-71
2022/10/22 07:01:21;;;;;;;2.70;2.50;;;;;;;;;;5123651;27;20313;-71
2022/10/22 07:03:49;;;;;;;9.40;6.53;;;;;;;;;;5123426;28;20195;-71
2022/10/22 07:06:15;;;;;;;5.00;3.33;;;;;;;;;;5123165;28;20399;-71
2022/10/22 07:08:42;;;;;;;3.28;2.95;;;;;;;;;;5123067;28;20218;-71
2022/10/22 07:11:11;;;;;;;2.72;2.42;;;;;;;;;;5123095;28;20222;-71
2022/10/22 07:13:37;;;;;;;5.30;2.85;;;;;;;;;;5122941;28;20201;-71
2022/10/22 07:16:04;;;;;;;7.43;2.75;;;;;;;;;;5122993;28;20206;-71
2022/10/22 07:18:31;;;;;;;8.55;2.65;;;;;;;;;;5122928;28;20352;-71
2022/10/22 07:20:57;;;;;;;3.28;2.70;;;;;;;;;;5123100;28;20396;-71
2022/10/22 07:23:23;;;;;;;4.28;2.75;;;;;;;;;;5122924;28;20205;-71
2022/10/22 07:25:50;;;;;;;7.90;2.63;;;;;;;;;;5122773;27;20407;-71
2022/10/22 07:28:17;;;;;;;2.22;2.13;;;;;;;;;;5122294;28;20379;-71
2022/10/22 07:30:43;;;;;;;16.63;8.45;;;;;;;;;;5122925;28;20194;-71
2022/10/22 07:33:10;;;;;;;9.07;5.22;;;;;;;;;;5122727;28;20205;-71
2022/10/22 07:35:36;;;;;;;7.03;3.92;;;;;;;;;;5122743;28;20197;-72
2022/10/22 07:38:03;;;;;;;4.55;2.17;;;;;;;;;;5122593;28;20406;-72
2022/10/22 07:40:29;;;;;;;2.40;1.70;;;;;;;;;;5122687;28;20364;-72
2022/10/22 07:42:56;;;;;;;3.20;2.00;;;;;;;;;;5122413;28;20194;-70
2022/10/22 07:45:23;;;;;;;5.65;2.08;;;;;;;;;;5122789;28;20402;-70
2022/10/22 07:47:49;;;;;;;4.13;2.28;;;;;;;;;;5122291;28;20195;-70
2022/10/22 07:50:16;;;;;;;2.72;1.83;;;;;;;;;;5122514;28;20195;-70
2022/10/22 07:52:43;;;;;;;2.60;2.05;;;;;;;;;;5122497;28;20202;-70
2022/10/22 07:55:09;;;;;;;6.00;1.75;;;;;;;;;;5122439;28;20202;-70
2022/10/22 07:57:36;;;;;;;4.05;1.58;;;;;;;;;;5122240;28;20195;-72
2022/10/22 08:00:02;;;;;;;2.78;1.23;;;;;;;;;;5122675;28;20195;-70
2022/10/22 08:02:30;;;;;;;1.10;1.10;;;;;;;;;;5122500;28;20514;-70
2022/10/22 08:04:56;;;;;;;1.33;1.33;;;;;;;;;;5122597;28;20195;-70
2022/10/22 08:07:22;;;;;;;3.22;1.60;;;;;;;;;;5122696;28;20199;-70
2022/10/22 08:09:49;;;;;;;6.75;2.75;;;;;;;;;;5124662;28;20194;-70
2022/10/22 08:12:15;;;;;;;2.65;2.42;;;;;;;;;;5126417;28;20380;-70
2022/10/22 08:14:41;;;;;;;2.50;2.33;;;;;;;;;;5126655;28;20209;-70
2022/10/22 08:17:08;;;;;;;1.90;1.80;;;;;;;;;;5126604;28;20198;-70
2022/10/22 08:19:35;;;;;;;1.52;1.52;;;;;;;;;;5126212;28;20266;-70
2022/10/22 08:22:02;;;;;;;1.80;1.63;;;;;;;;;;5126360;27;20201;-70
2022/10/22 08:24:28;;;;;;;1.80;1.35;;;;;;;;;;5126215;28;20205;-70
2022/10/22 08:26:55;;;;;;;1.98;1.27;;;;;;;;;;5126048;28;20498;-70
2022/10/22 08:29:22;;;;;;;1.70;1.60;;;;;;;;;;5126029;28;20390;-70
2022/10/22 08:31:48;;;;;;;1.63;1.48;;;;;;;;;;5126325;28;20368;-70
2022/10/22 08:34:14;;;;;;;1.80;1.27;;;;;;;;;;5126217;28;20387;-70
2022/10/22 08:36:42;;;;;;;3.17;1.30;;;;;;;;;;5126105;28;20199;-70
2022/10/22 08:39:08;;;;;;;1.38;1.10;;;;;;;;;;5125648;28;20210;-70
2022/10/22 08:41:36;;;;;;;1.25;1.10;;;;;;;;;;5125869;28;20266;-70
2022/10/22 08:44:17;;;;;;;1.83;0.73;;;;;;;;;;5126029;28;20490;-70
2022/10/22 08:46:49;;;;;;;0.60;0.60;;;;;;;;;;5112664;28;20213;-72
2022/10/22 08:49:18;;;;;;;2.33;0.85;;;;;;;;;;5125645;28;20261;-72
2022/10/22 08:51:46;;;;;;;2.30;1.00;;;;;;;;;;5125802;28;20203;-70
2022/10/22 08:54:22;;;;;;;1.45;1.35;;;;;;;;;;5125647;28;20242;-70
2022/10/22 08:56:55;;;;;;;3.63;0.90;;;;;;;;;;5125901;28;20229;-70
2022/10/22 08:59:25;;;;;;;1.00;0.80;;;;;;;;;;5125655;28;20195;-70
2022/10/22 09:01:53;;;;;;;2.55;0.80;;;;;;;;;;5125645;28;20203;-72
2022/10/22 09:04:24;;;;;;;4.32;0.82;;;;;;;;;;5125783;28;20274;-70
2022/10/22 09:06:52;;;;;;;0.60;0.60;;;;;;;;;;5125714;28;20506;-70
2022/10/22 09:09:19;;;;;;;1.17;0.80;;;;;;;;;;5125350;28;20446;-70
2022/10/22 09:11:47;;;;;;;1.70;0.60;;;;;;;;;;5125517;27;20195;-70
2022/10/22 09:14:15;;;;;;;0.90;0.90;;;;;;;;;;5125365;28;20202;-70
2022/10/22 09:16:49;;;;;;;3.75;1.10;;;;;;;;;;5125264;27;20481;-70
2022/10/22 09:19:19;;;;;;;1.85;0.70;;;;;;;;;;5125268;28;20385;-70
2022/10/22 09:21:50;;;;;;;1.67;0.88;;;;;;;;;;5124349;27;20394;-70
2022/10/22 09:24:21;;;;;;;0.80;0.80;;;;;;;;;;5125119;28;20509;-70
2022/10/22 09:26:48;;;;;;;1.33;0.50;;;;;;;;;;5125143;28;20215;-70
2022/10/22 09:29:17;;;;;;;3.95;0.80;;;;;;;;;;5124654;28;20215;-70
2022/10/22 09:31:43;;;;;;;3.65;0.77;;;;;;;;;;5125220;28;20209;-70
2022/10/22 09:34:13;;;;;;;3.15;0.80;;;;;;;;;;5125237;27;20369;-70
2022/10/22 09:36:39;;;;;;;1.30;0.77;;;;;;;;;;5125025;28;20528;-70
2022/10/22 09:39:21;;;;;;;3.25;0.80;;;;;;;;;;5124670;28;20203;-70
2022/10/22 09:41:49;;;;;;;1.75;0.80;;;;;;;;;;5124755;28;20206;-70
2022/10/22 09:44:15;;;;;;;9.10;0.80;;;;;;;;;;5124661;28;20201;-70
2022/10/22 09:46:44;;;;;;;2.28;0.80;;;;;;;;;;5124782;28;20214;-70
2022/10/22 09:49:12;;;;;;;2.15;1.10;;;;;;;;;;5124499;28;20222;-70
2022/10/22 09:51:42;;;;;;;1.10;0.60;;;;;;;;;;5124570;28;20195;-70
2022/10/22 09:54:15;;;;;;;2.92;0.60;;;;;;;;;;5124500;28;20194;-70
2022/10/22 09:56:42;;;;;;;1.33;0.70;;;;;;;;;;5124707;28;20245;-70
2022/10/22 09:59:13;;;;;;;0.82;0.60;;;;;;;;;;5124655;28;20195;-70
2022/10/22 10:01:40;;;;;;;2.85;0.43;;;;;;;;;;5124508;28;20202;-70
2022/10/22 10:04:07;;;;;;;0.52;0.43;;;;;;;;;;5124527;28;20198;-70
2022/10/22 10:06:34;;;;;;;0.93;0.80;;;;;;;;;;5124231;28;20210;-70
2022/10/22 10:09:04;;;;;;;0.47;0.47;;;;;;;;;;5124151;27;20201;-72
2022/10/22 10:11:34;;;;;;;0.85;0.73;;;;;;;;;;5124398;28;20220;-71
2022/10/22 10:14:04;;;;;;;0.45;0.45;;;;;;;;;;5124400;28;20502;-70
2022/10/22 10:16:40;;;;;;;0.82;0.63;;;;;;;;;;5124299;28;20187;-70
2022/10/22 10:19:12;;;;;;;3.65;0.60;;;;;;;;;;5123937;28;20202;-71
2022/10/22 10:21:44;;;;;;;0.80;0.80;;;;;;;;;;5124461;28;20195;-70
2022/10/22 10:24:15;;;;;;;0.63;0.63;;;;;;;;;;5124372;28;20363;-70
2022/10/22 10:26:44;;;;;;;0.30;0.30;;;;;;;;;;5124114;28;20211;-70
2022/10/22 10:29:16;;;;;;;0.30;0.30;;;;;;;;;;5123769;28;20226;-70
2022/10/22 10:31:49;;;;;;;1.48;0.40;;;;;;;;;;5123522;28;20203;-70
2022/10/22 10:34:22;;;;;;;1.30;0.60;;;;;;;;;;5124013;28;20195;-70
2022/10/22 10:36:53;;;;;;;3.38;0.50;;;;;;;;;;5123817;28;20191;-72
2022/10/22 10:39:23;;;;;;;0.95;0.45;;;;;;;;;;5123645;28;20202;-70
2022/10/22 10:41:52;;;;;;;2.17;0.60;;;;;;;;;;5123592;28;20195;-70
2022/10/22 10:44:24;;;;;;;0.50;0.50;;;;;;;;;;5123508;28;20202;-70
2022/10/22 10:46:56;;;;;;;1.75;0.43;;;;;;;;;;5122319;28;20529;-70
2022/10/22 10:49:24;;;;;;;2.25;0.50;;;;;;;;;;5123430;28;20199;-70
2022/10/22 10:51:53;;;;;;;1.75;0.60;;;;;;;;;;5123337;28;20198;-70
2022/10/22 10:54:25;;;;;;;2.90;0.70;;;;;;;;;;5123406;28;20195;-70
2022/10/22 10:56:54;;;;;;;0.63;0.60;;;;;;;;;;5123398;28;20179;-70
2022/10/22 10:59:26;;;;;;;8.35;0.70;;;;;;;;;;5123236;28;20205;-70
2022/10/22 11:02:02;;;;;;;2.40;0.52;;;;;;;;;;5123463;28;20362;-70
2022/10/22 11:04:43;;;;;;;1.60;0.60;;;;;;;;;;5123563;28;20639;-70
2022/10/22 11:07:14;;;;;;;1.48;0.60;;;;;;;;;;5089556;28;20223;-70
2022/10/22 11:09:43;;;;;;;1.15;0.63;;;;;;;;;;5123229;28;20201;-70
2022/10/22 11:12:13;;;;;;;5.15;0.63;;;;;;;;;;5123232;28;20203;-70
2022/10/22 11:14:46;;;;;;;2.78;0.63;;;;;;;;;;5123279;28;20202;-70
2022/10/22 11:17:14;;;;;;;3.70;0.70;;;;;;;;;;5123217;28;20614;-70
2022/10/22 11:19:42;;;;;;;2.75;0.80;;;;;;;;;;5122797;28;20375;-70
2022/10/22 11:22:11;;;;;;;15.32;6.18;;;;;;;;;;5123171;28;20454;-70
2022/10/22 11:24:40;;;;;;;2.38;1.40;;;;;;;;;;5123082;28;20201;-70
2022/10/22 11:27:11;;;;;;;3.75;1.17;;;;;;;;;;5122769;28;20536;-70
2022/10/22 11:29:40;;;;;;;1.50;0.63;;;;;;;;;;5123101;28;20189;-70
2022/10/22 11:32:11;;;;;;;3.85;0.60;;;;;;;;;;5122849;28;20482;-70
2022/10/22 11:34:40;;;;;;;1.50;0.68;;;;;;;;;;5122959;28;20201;-70
2022/10/22 11:37:07;;;;;;;1.17;0.70;;;;;;;;;;5122824;28;20365;-70
2022/10/22 11:39:36;;;;;;;1.15;0.70;;;;;;;;;;5122551;28;20213;-70
2022/10/22 11:42:04;;;;;;;1.75;0.55;;;;;;;;;;5122783;28;20226;-70
2022/10/22 11:44:31;;;;;;;0.80;0.60;;;;;;;;;;5121968;28;20261;-71
2022/10/22 11:46:59;;;;;;;1.10;0.60;;;;;;;;;;5122512;28;20215;-71
2022/10/22 11:49:26;;;;;;;1.23;0.50;;;;;;;;;;5122733;28;20199;-71
2022/10/22 11:52:06;;;;;;;0.82;0.60;;;;;;;;;;5122725;28;20383;-71
2022/10/22 11:54:41;;;;;;;0.82;0.60;;;;;;;;;;5122545;28;20198;-71
2022/10/22 11:57:23;;;;;;;3.97;0.73;;;;;;;;;;5122594;28;20403;-71
2022/10/22 11:59:50;;;;;;;1.65;0.60;;;;;;;;;;5122135;28;20273;-71
2022/10/22 12:02:24;;;;;;;2.65;0.60;;;;;;;;;;5122583;28;20201;-71
2022/10/22 12:04:50;;;;;;;6.85;0.80;;;;;;;;;;5122461;28;20406;-71
2022/10/22 12:07:32;;;;;;;1.00;0.47;;;;;;;;;;5122304;28;20291;-71
2022/10/22 12:09:58;;;;;;;1.83;0.70;;;;;;;;;;5122327;28;20194;-71
2022/10/22 12:12:26;;;;;;;2.88;0.77;;;;;;;;;;5122318;28;20194;-71
2022/10/22 12:14:54;;;;;;;0.77;0.50;;;;;;;;;;5122533;28;20506;-71
2022/10/22 12:17:21;;;;;;;2.35;0.65;;;;;;;;;;5122340;28;20197;-71
2022/10/22 12:19:48;;;;;;;2.10;0.65;;;;;;;;;;5121704;28;20195;-71
2022/10/22 12:22:17;;;;;;;6.38;0.70;;;;;;;;;;5122550;28;20236;-71
2022/10/22 12:24:46;;;;;;;1.15;0.60;;;;;;;;;;5122521;28;20195;-71
2022/10/22 12:27:20;;;;;;;1.25;0.70;;;;;;;;;;5122250;28;20214;-71
2022/10/22 12:29:46;;;;;;;2.65;0.65;;;;;;;;;;5122220;28;20256;-71
2022/10/22 12:32:13;;;;;;;2.28;0.70;;;;;;;;;;5122040;28;20194;-71
2022/10/22 12:34:44;;;;;;;1.77;0.80;;;;;;;;;;5122043;28;20197;-72
2022/10/22 12:37:11;;;;;;;2.80;0.77;;;;;;;;;;5122209;28;20434;-71
2022/10/22 12:39:37;;;;;;;2.83;0.70;;;;;;;;;;5122210;28;20195;-70
2022/10/22 12:42:07;;;;;;;1.27;0.70;;;;;;;;;;5122366;28;20498;-70
2022/10/22 12:44:33;;;;;;;2.53;0.50;;;;;;;;;;5122213;28;20205;-71
2022/10/22 12:46:59;;;;;;;1.10;0.40;;;;;;;;;;5121949;28;20211;-71
2022/10/22 12:49:31;;;;;;;2.53;0.77;;;;;;;;;;5121966;28;20203;-71
2022/10/22 12:52:00;;;;;;;2.05;0.77;;;;;;;;;;5122285;28;20195;-71
2022/10/22 12:54:27;;;;;;;1.75;1.35;;;;;;;;;;5122206;28;20502;-71
2022/10/22 12:56:54;;;;;;;3.50;1.45;;;;;;;;;;5125799;27;20241;-71
2022/10/22 12:59:23;;;;;;;4.78;1.77;;;;;;;;;;5125488;28;20203;-71
2022/10/22 13:01:51;;;;;;;1.75;1.40;;;;;;;;;;5125628;28;20209;-71
2022/10/22 13:04:22;;;;;;;2.67;1.80;;;;;;;;;;5125471;28;20399;-71
2022/10/22 13:06:49;;;;;;;3.53;1.58;;;;;;;;;;5125387;27;20282;-71
2022/10/22 13:09:17;;;;;;;5.43;1.45;;;;;;;;;;5125364;28;20195;-71
2022/10/22 13:11:49;;;;;;;1.90;1.17;;;;;;;;;;5125727;28;20194;-71
2022/10/22 13:14:18;;;;;;;1.23;1.13;;;;;;;;;;5125313;28;20195;-71
2022/10/22 13:17:00;;;;;;;2.42;2.22;;;;;;;;;;5125562;28;20240;-71
2022/10/22 13:19:37;;;;;;;3.05;0.70;;;;;;;;;;5124916;28;20459;-70
2022/10/22 13:22:03;;;;;;;1.40;0.60;;;;;;;;;;5125235;28;20211;-70
2022/10/22 13:24:29;;;;;;;1.17;0.90;;;;;;;;;;5125132;28;20195;-70
2022/10/22 13:26:56;;;;;;;5.60;1.95;;;;;;;;;;5124937;28;20519;-70
2022/10/22 13:29:23;;;;;;;9.40;2.70;;;;;;;;;;5125023;27;20218;-70
2022/10/22 13:31:50;;;;;;;9.77;5.75;;;;;;;;;;5125295;28;20262;-70
2022/10/22 13:34:18;;;;;;;13.82;8.43;;;;;;;;;;5125199;28;20426;-70
2022/10/22 13:36:45;;;;;;;10.32;6.25;;;;;;;;;;5125050;28;20203;-70
2022/10/22 13:39:13;;;;;;;16.08;9.55;;;;;;;;;;5124510;28;20203;-70
2022/10/22 13:41:39;;;;;;;10.65;7.30;;;;;;;;;;5124738;28;20195;-70
2022/10/22 13:44:05;;;;;;;7.15;4.72;;;;;;;;;;5125012;28;20194;-70
2022/10/22 13:46:32;;;;;;;9.43;6.10;;;;;;;;;;5124831;28;20199;-71
2022/10/22 13:48:59;;;;;;;3.63;2.47;;;;;;;;;;5124429;28;20219;-70
2022/10/22 13:51:30;;;;;;;2.42;1.80;;;;;;;;;;5124611;28;20195;-70
2022/10/22 13:53:57;;;;;;;4.80;1.25;;;;;;;;;;5124651;28;20378;-70
2022/10/22 13:56:24;;;;;;;4.20;0.95;;;;;;;;;;5124903;27;20397;-70
2022/10/22 13:58:50;;;;;;;2.95;0.90;;;;;;;;;;5124400;28;20191;-70
2022/10/22 14:01:20;;;;;;;2.42;0.73;;;;;;;;;;5124479;28;20201;-70
2022/10/22 14:03:46;;;;;;;2.15;1.05;;;;;;;;;;5124440;28;20262;-70
2022/10/22 14:06:14;;;;;;;2.75;1.00;;;;;;;;;;5124001;28;20217;-70
2022/10/22 14:08:41;;;;;;;2.95;1.38;;;;;;;;;;5124411;28;20215;-70
2022/10/22 14:11:09;;;;;;;5.10;1.40;;;;;;;;;;5124738;27;20195;-70
2022/10/22 14:13:36;;;;;;;1.75;1.27;;;;;;;;;;5124436;27;20207;-70
2022/10/22 14:16:04;;;;;;;2.53;1.20;;;;;;;;;;5124622;28;20195;-70
2022/10/22 14:18:31;;;;;;;5.38;0.90;;;;;;;;;;5124172;28;20222;-70
2022/10/22 14:20:59;;;;;;;1.42;0.68;;;;;;;;;;5124331;28;20370;-70
2022/10/22 14:23:27;;;;;;;4.03;1.10;;;;;;;;;;5124488;28;20207;-70
2022/10/22 14:25:53;;;;;;;3.83;0.70;;;;;;;;;;5124227;28;20187;-70
2022/10/22 14:28:21;;;;;;;1.25;0.70;;;;;;;;;;5123478;28;20231;-70
2022/10/22 14:30:47;;;;;;;2.03;0.60;;;;;;;;;;5123976;28;20195;-70
2022/10/22 14:33:15;;;;;;;2.75;0.70;;;;;;;;;;5123842;27;20201;-70
2022/10/22 14:35:42;;;;;;;3.90;0.88;;;;;;;;;;5123940;28;20194;-70
2022/10/22 14:38:08;;;;;;;4.22;0.70;;;;;;;;;;5123642;27;20205;-70
2022/10/22 14:40:34;;;;;;;1.58;0.68;;;;;;;;;;5123723;28;20195;-70
2022/10/22 14:43:01;;;;;;;2.15;0.77;;;;;;;;;;5123729;28;20201;-70
2022/10/22 14:45:28;;;;;;;2.05;0.80;;;;;;;;;;5123632;28;20343;-70
2022/10/22 14:47:55;;;;;;;2.20;0.85;;;;;;;;;;5123235;28;20289;-70
2022/10/22 14:50:21;;;;;;;4.15;1.30;;;;;;;;;;5123439;28;20240;-70